Time;durP1;ratioP1;P1;durP2;ratioP2;P2;SDS_P1;SDS_P2;PMS_P1;PMS_P2;Temp;Humidity;BMP_temperature;BMP_pressure;BME280_temperature;BME280_humidity;BME280_pressure;Samples;Min_cycle;Max_cycle;Signal;HPM_P1;HPM_P2
2023/05/11 00:01:50;;;;;;;16.15;10.48;;;;;;;12.23;100.00;101118.41;5026340;28;20498;-68
2023/05/11 00:04:15;;;;;;;10.98;8.20;;;;;;;12.23;100.00;101114.00;5024826;28;20048;-69
2023/05/11 00:06:41;;;;;;;16.10;9.40;;;;;;;12.23;100.00;101108.81;5043952;28;20033;-69
2023/05/11 00:09:08;;;;;;;13.40;9.13;;;;;;;12.23;100.00;101113.22;5042362;28;20044;-69
2023/05/11 00:11:34;;;;;;;13.80;9.95;;;;;;;12.22;100.00;101109.81;5028274;28;20108;-69
2023/05/11 00:13:59;;;;;;;14.98;9.07;;;;;;;12.21;100.00;101113.34;5042454;28;20580;-69
2023/05/11 00:16:25;;;;;;;13.02;9.35;;;;;;;12.20;100.00;101114.31;5041066;28;20037;-69
2023/05/11 00:18:50;;;;;;;20.08;10.57;;;;;;;12.22;100.00;101112.41;5024383;28;20047;-69
2023/05/11 00:21:16;;;;;;;15.23;10.45;;;;;;;12.22;100.00;101112.41;5025805;28;20487;-69
2023/05/11 00:23:41;;;;;;;16.90;10.15;;;;;;;12.24;100.00;101115.66;5021740;28;20045;-68
2023/05/11 00:26:07;;;;;;;15.10;9.80;;;;;;;12.24;100.00;101107.03;5037953;28;20036;-69
2023/05/11 00:28:32;;;;;;;18.45;10.57;;;;;;;12.24;100.00;101102.66;5035946;28;20045;-69
2023/05/11 00:30:58;;;;;;;15.18;10.00;;;;;;;12.24;100.00;101105.25;5004390;28;20037;-68
2023/05/11 00:33:23;;;;;;;17.77;11.93;;;;;;;12.25;100.00;101109.47;5037482;28;20037;-69
2023/05/11 00:35:50;;;;;;;21.35;13.68;;;;;;;12.21;100.00;101112.56;5023480;28;20064;-68
2023/05/11 00:38:15;;;;;;;22.10;12.57;;;;;;;12.21;100.00;101113.34;5039633;28;20506;-69
2023/05/11 00:40:41;;;;;;;23.13;13.80;;;;;;;12.17;100.00;101116.44;5022857;28;20115;-68
2023/05/11 00:43:07;;;;;;;27.38;14.35;;;;;;;12.13;100.00;101117.72;5037791;28;20048;-69
2023/05/11 00:45:34;;;;;;;26.75;15.55;;;;;;;12.10;100.00;101111.06;5003636;28;20103;-69
2023/05/11 00:48:00;;;;;;;28.00;15.13;;;;;;;12.08;100.00;101118.19;5041543;28;20048;-69
2023/05/11 00:50:26;;;;;;;28.85;15.18;;;;;;;12.08;100.00;101120.78;5018183;28;21675;-69
2023/05/11 00:52:56;;;;;;;29.65;16.52;;;;;;;12.06;100.00;101117.53;5022021;28;20041;-68
2023/05/11 00:55:23;;;;;;;34.22;17.73;;;;;;;12.03;100.00;101121.25;5022911;28;20029;-68
2023/05/11 00:57:49;;;;;;;29.00;16.23;;;;;;;12.01;100.00;101118.00;5021743;28;20131;-69
2023/05/11 01:00:15;;;;;;;27.85;15.07;;;;;;;12.00;100.00;101123.38;5027341;28;20045;-69
2023/05/11 01:02:40;;;;;;;26.98;15.07;;;;;;;11.99;100.00;101119.13;5043997;28;20037;-69
2023/05/11 01:05:07;;;;;;;24.52;14.63;;;;;;;12.00;100.00;101128.56;5030148;28;20140;-69
2023/05/11 01:08:00;;;;;;;27.02;13.82;;;;;;;12.03;100.00;101130.84;5044138;28;20120;-69
2023/05/11 01:10:39;;;;;;;23.63;12.45;;;;;;;12.03;100.00;101133.44;5031729;28;20037;-69
2023/05/11 01:13:32;;;;;;;20.95;12.82;;;;;;;12.03;100.00;101133.44;5028114;28;20075;-69
2023/05/11 01:16:05;;;;;;;22.65;12.50;;;;;;;12.00;100.00;101128.56;5043688;28;20037;-69
2023/05/11 01:18:38;;;;;;;20.42;10.80;;;;;;;11.99;100.00;101134.72;5038677;28;20045;-68
2023/05/11 01:21:15;;;;;;;18.58;11.20;;;;;;;11.97;100.00;101134.09;5025926;28;20624;-68
2023/05/11 01:23:51;;;;;;;19.55;10.55;;;;;;;11.98;100.00;101135.69;5041135;28;20029;-69
2023/05/11 01:27:01;;;;;;;18.17;11.23;;;;;;;11.97;100.00;101142.69;5041171;28;20044;-69
2023/05/11 01:30:03;;;;;;;15.75;10.02;;;;;;;11.98;100.00;101141.72;4984550;28;20035;-70
2023/05/11 01:32:31;;;;;;;23.40;12.63;;;;;;;12.01;100.00;101140.59;5046105;28;20527;-69
2023/05/11 01:35:13;;;;;;;19.45;11.60;;;;;;;11.99;100.00;101132.94;5027684;28;20090;-70
2023/05/11 01:37:47;;;;;;;18.50;11.97;;;;;;;11.99;100.00;101139.94;5048801;28;20757;-69
2023/05/11 01:40:16;;;;;;;21.02;13.05;;;;;;;11.99;100.00;101145.94;5027858;28;20049;-70
2023/05/11 01:42:48;;;;;;;22.50;12.75;;;;;;;11.97;100.00;101141.88;5013538;28;20029;-69
2023/05/11 01:45:16;;;;;;;23.55;12.55;;;;;;;11.98;100.00;101144.31;5026460;28;20056;-70
2023/05/11 01:47:44;;;;;;;20.02;12.00;;;;;;;11.98;100.00;101144.31;5012476;28;20060;-69
2023/05/11 01:50:11;;;;;;;23.15;12.35;;;;;;;12.00;100.00;101146.78;5029532;28;20045;-68
2023/05/11 01:52:38;;;;;;;24.10;13.57;;;;;;;11.97;100.00;101144.47;5030753;28;20461;-69
2023/05/11 01:55:06;;;;;;;23.48;13.10;;;;;;;11.97;100.00;101141.88;5027125;28;20049;-69
2023/05/11 01:57:33;;;;;;;25.08;13.43;;;;;;;11.97;100.00;101144.47;5031247;28;20548;-69
2023/05/11 02:00:00;;;;;;;29.10;15.43;;;;;;;11.94;100.00;101142.19;5010983;28;20362;-69
2023/05/11 02:02:28;;;;;;;27.95;15.75;;;;;;;11.91;100.00;101139.91;5046481;28;20040;-70
2023/05/11 02:04:58;;;;;;;26.88;15.13;;;;;;;11.90;100.00;101141.66;5010088;28;20041;-68
2023/05/11 02:07:28;;;;;;;30.95;15.65;;;;;;;11.91;100.00;101138.13;5024144;28;20041;-70
2023/05/11 02:09:56;;;;;;;23.42;13.43;;;;;;;11.90;100.00;101135.66;5028266;28;20581;-69
2023/05/11 02:12:24;;;;;;;26.10;15.40;;;;;;;11.90;100.00;101133.88;5009176;28;20029;-68
2023/05/11 02:14:56;;;;;;;32.10;17.10;;;;;;;11.93;100.00;101130.16;5043939;28;20033;-69
2023/05/11 02:17:23;;;;;;;28.58;16.25;;;;;;;11.88;100.00;101130.59;5026276;28;20029;-69
2023/05/11 02:19:50;;;;;;;27.38;14.32;;;;;;;11.87;100.00;101137.59;5044447;28;20045;-70
2023/05/11 02:22:18;;;;;;;26.92;14.50;;;;;;;11.87;100.00;101134.97;5028587;28;20028;-68
2023/05/11 02:24:43;;;;;;;25.05;14.20;;;;;;;11.89;100.00;101134.84;5011366;28;20530;-69
2023/05/11 02:27:09;;;;;;;30.08;15.75;;;;;;;11.90;100.00;101140.88;5013561;28;20048;-69
2023/05/11 02:29:35;;;;;;;28.45;15.82;;;;;;;11.88;100.00;101134.03;5025030;28;20037;-70
2023/05/11 02:32:16;;;;;;;30.27;16.77;;;;;;;11.89;100.00;101127.03;5012518;28;20407;-70
2023/05/11 02:34:48;;;;;;;28.65;16.83;;;;;;;11.87;100.00;101134.97;5024865;28;20048;-69
2023/05/11 02:37:20;;;;;;;37.75;18.63;;;;;;;11.83;100.00;101125.88;5042274;28;20036;-69
2023/05/11 02:39:51;;;;;;;33.67;16.77;;;;;;;11.83;100.00;101117.28;5028183;28;20041;-69
2023/05/11 02:42:20;;;;;;;36.10;17.95;;;;;;;11.84;100.00;101124.09;5025406;28;20379;-70
2023/05/11 02:44:55;;;;;;;31.70;17.40;;;;;;;11.81;100.00;101120.03;5044634;28;20040;-70
2023/05/11 02:47:24;;;;;;;32.88;18.65;;;;;;;11.80;100.00;101125.38;5028047;28;20090;-69
2023/05/11 02:49:52;;;;;;;32.20;17.08;;;;;;;11.79;100.00;101123.72;5039876;28;20559;-69
2023/05/11 02:52:24;;;;;;;35.42;17.75;;;;;;;11.76;100.00;101118.88;5030681;28;20505;-69
2023/05/11 02:54:51;;;;;;;34.17;17.08;;;;;;;11.74;100.00;101116.41;5027942;28;20045;-70
2023/05/11 02:57:18;;;;;;;38.13;19.77;;;;;;;11.71;100.00;101116.72;5047346;28;20483;-70
2023/05/11 02:59:45;;;;;;;36.28;19.55;;;;;;;11.71;100.00;101113.31;5028335;28;20070;-70
2023/05/11 03:02:12;;;;;;;39.15;20.77;;;;;;;11.69;100.00;101114.28;5023782;28;20024;-70
2023/05/11 03:04:41;;;;;;;36.25;19.98;;;;;;;11.65;100.00;101118.16;5025863;28;20037;-70
2023/05/11 03:07:07;;;;;;;37.67;18.77;;;;;;;11.67;100.00;101118.81;5029454;28;20257;-68
2023/05/11 03:09:33;;;;;;;30.73;18.30;;;;;;;11.64;100.00;101118.31;5044299;28;20473;-69
2023/05/11 03:12:00;;;;;;;33.90;18.65;;;;;;;11.64;100.00;101126.09;5013243;28;20087;-68
2023/05/11 03:14:26;;;;;;;38.65;19.30;;;;;;;11.63;100.00;101134.88;5039784;28;20041;-70
2023/05/11 03:16:55;;;;;;;33.63;18.10;;;;;;;11.64;100.00;101136.47;5041786;28;20064;-69
2023/05/11 03:19:21;;;;;;;32.72;17.98;;;;;;;11.65;100.00;101133.75;5010191;28;20044;-70
2023/05/11 03:21:50;;;;;;;33.83;17.38;;;;;;;11.65;100.00;101138.94;5046337;28;20040;-69
2023/05/11 03:24:16;;;;;;;33.28;17.20;;;;;;;11.67;100.00;101138.78;5042873;28;20049;-70
2023/05/11 03:26:43;;;;;;;34.72;17.58;;;;;;;11.68;100.00;101138.63;5028644;28;20036;-70
2023/05/11 03:29:12;;;;;;;31.77;18.42;;;;;;;11.71;100.00;101131.50;5027818;28;20665;-70
2023/05/11 03:31:37;;;;;;;36.95;19.65;;;;;;;11.73;100.00;101137.34;5027430;28;20193;-69
2023/05/11 03:34:03;;;;;;;38.28;20.52;;;;;;;11.67;100.00;101141.38;5041583;28;20041;-69
2023/05/11 03:36:34;;;;;;;35.50;19.13;;;;;;;11.62;100.00;101128.03;5022421;28;20116;-70
2023/05/11 03:39:01;;;;;;;30.25;16.92;;;;;;;11.61;100.00;101126.44;5027786;28;20040;-70
2023/05/11 03:41:35;;;;;;;26.95;15.55;;;;;;;11.61;100.00;101132.44;5025631;28;20033;-70
2023/05/11 03:44:04;;;;;;;32.15;18.02;;;;;;;11.63;100.00;101127.09;5042448;28;20037;-70
2023/05/11 03:46:38;;;;;;;36.70;20.15;;;;;;;11.64;100.00;101126.09;5021693;28;20037;-70
2023/05/11 03:49:07;;;;;;;28.88;16.77;;;;;;;11.64;100.00;101134.72;5043299;28;20047;-68
2023/05/11 03:51:35;;;;;;;29.95;16.60;;;;;;;11.65;100.00;101122.53;5046896;28;20074;-70
2023/05/11 03:54:01;;;;;;;34.45;18.63;;;;;;;11.67;100.00;101123.19;5024845;28;20124;-69
2023/05/11 03:56:26;;;;;;;35.33;19.05;;;;;;;11.68;100.00;101127.44;5044090;28;20210;-69
2023/05/11 03:58:52;;;;;;;33.65;18.38;;;;;;;11.70;100.00;101125.50;5026652;28;20041;-69
2023/05/11 04:01:18;;;;;;;35.15;19.00;;;;;;;11.71;100.00;101123.72;5027043;28;20376;-70
2023/05/11 04:03:52;;;;;;;34.03;18.65;;;;;;;11.73;100.00;101121.75;5040114;28;20037;-69
2023/05/11 04:06:20;;;;;;;35.40;18.25;;;;;;;11.73;100.00;101124.38;5043103;28;20029;-68
2023/05/11 04:08:52;;;;;;;30.30;17.60;;;;;;;11.74;100.00;101126.00;4997848;28;20419;-69
2023/05/11 04:11:18;;;;;;;33.58;18.45;;;;;;;11.74;100.00;101123.41;5023320;28;20033;-69
2023/05/11 04:13:43;;;;;;;35.85;20.58;;;;;;;11.75;100.00;101131.03;5022471;28;20084;-70
2023/05/11 04:16:09;;;;;;;37.15;19.20;;;;;;;11.74;100.00;101123.41;5023642;28;20384;-69
2023/05/11 04:18:38;;;;;;;37.20;20.80;;;;;;;11.75;100.00;101131.03;5019932;28;20048;-69
2023/05/11 04:21:05;;;;;;;40.58;20.67;;;;;;;11.74;100.00;101131.19;5026517;28;20048;-70
2023/05/11 04:23:30;;;;;;;39.60;20.17;;;;;;;11.75;100.00;101135.41;5027116;28;20041;-68
2023/05/11 04:26:00;;;;;;;43.15;22.20;;;;;;;11.74;100.00;101126.00;5026614;28;20091;-69
2023/05/11 04:28:29;;;;;;;42.03;21.17;;;;;;;11.75;100.00;101138.00;5025873;28;20045;-69
2023/05/11 04:30:56;;;;;;;34.80;19.48;;;;;;;11.75;100.00;101144.00;5026373;28;20053;-69
2023/05/11 04:33:22;;;;;;;32.90;19.13;;;;;;;11.77;100.00;101144.69;5027322;28;20072;-69
2023/05/11 04:35:52;;;;;;;39.63;19.92;;;;;;;11.79;100.00;101145.34;5025404;28;20033;-69
2023/05/11 04:38:19;;;;;;;37.50;19.95;;;;;;;11.83;100.00;101146.66;5022768;28;20045;-70
2023/05/11 04:40:45;;;;;;;37.70;20.73;;;;;;;11.85;100.00;101144.72;5043201;28;20033;-69
2023/05/11 04:43:11;;;;;;;37.90;20.02;;;;;;;11.87;100.00;101142.78;5040745;28;20056;-69
2023/05/11 04:45:37;;;;;;;34.88;19.40;;;;;;;11.92;100.00;101147.53;5025606;28;20025;-69
2023/05/11 04:48:02;;;;;;;44.60;22.00;;;;;;;11.95;100.00;101141.22;5025650;28;20090;-69
2023/05/11 04:50:28;;;;;;;44.65;22.85;;;;;;;11.98;100.00;101148.69;5023742;28;20104;-69
2023/05/11 04:52:56;;;;;;;41.30;20.80;;;;;;;12.00;100.00;101147.56;5027129;28;20048;-70
2023/05/11 04:55:21;;;;;;;45.28;22.70;;;;;;;12.03;100.00;101157.63;5010460;28;20036;-69
2023/05/11 04:57:47;;;;;;;55.50;25.70;;;;;;;12.09;100.00;101151.00;5025105;28;20041;-69
2023/05/11 05:00:13;;;;;;;58.08;27.23;;;;;;;12.11;100.00;101158.66;5025037;28;20116;-69
2023/05/11 05:02:38;;;;;;;57.28;27.42;;;;;;;12.17;100.00;101155.44;5043173;28;20546;-69
2023/05/11 05:05:04;;;;;;;52.60;26.05;;;;;;;12.16;100.00;101153.81;5029810;28;20053;-68
2023/05/11 05:07:30;;;;;;;53.15;26.73;;;;;;;12.20;100.00;101160.31;5031102;28;20471;-69
2023/05/11 05:09:55;;;;;;;51.33;25.75;;;;;;;12.18;100.00;101157.06;5028975;28;20041;-69
2023/05/11 05:12:20;;;;;;;55.75;26.70;;;;;;;12.18;100.00;101159.66;5030025;28;20036;-69
2023/05/11 05:14:46;;;;;;;58.50;27.00;;;;;;;12.19;100.00;101169.91;5029599;28;20095;-69
2023/05/11 05:17:13;;;;;;;59.05;27.33;;;;;;;12.22;100.00;101168.75;5031463;28;20079;-69
2023/05/11 05:19:39;;;;;;;55.45;27.55;;;;;;;12.21;100.00;101175.75;5027405;28;20114;-69
2023/05/11 05:22:04;;;;;;;58.92;28.80;;;;;;;12.24;100.00;101174.63;5026382;28;20494;-69
2023/05/11 05:24:31;;;;;;;64.65;30.55;;;;;;;12.26;100.00;101178.69;5029608;28;20502;-69
2023/05/11 05:26:56;;;;;;;64.68;29.85;;;;;;;12.24;100.00;101185.84;5028860;28;20040;-70
2023/05/11 05:29:22;;;;;;;65.13;30.25;;;;;;;12.24;100.00;101191.06;5029297;28;20041;-69
2023/05/11 05:31:47;;;;;;;59.20;27.35;;;;;;;12.24;100.00;101185.00;5032440;28;20036;-69
2023/05/11 05:34:13;;;;;;;60.17;27.73;;;;;;;12.21;100.00;101193.94;5028382;28;20048;-69
2023/05/11 05:36:39;;;;;;;65.90;29.35;;;;;;;12.17;100.00;101189.25;5031028;28;20036;-70
2023/05/11 05:39:09;;;;;;;68.07;28.10;;;;;;;12.18;100.00;101196.84;5025012;28;20045;-69
2023/05/11 05:41:35;;;;;;;64.60;29.70;;;;;;;12.18;100.00;101201.25;5013697;28;20037;-70
2023/05/11 05:44:03;;;;;;;58.55;28.33;;;;;;;12.19;100.00;101201.09;5012340;28;20045;-69
2023/05/11 05:46:29;;;;;;;70.20;30.58;;;;;;;12.26;100.00;101201.28;5027255;28;20644;-69
2023/05/11 05:48:55;;;;;;;60.10;27.67;;;;;;;12.26;100.00;101202.09;5030755;28;20044;-69
2023/05/11 05:51:21;;;;;;;58.28;27.23;;;;;;;12.33;100.00;101207.47;5014520;28;20418;-69
2023/05/11 05:53:47;;;;;;;63.17;28.27;;;;;;;12.37;100.00;101206.19;5028550;28;20036;-69
2023/05/11 05:56:13;;;;;;;61.08;26.90;;;;;;;12.42;100.00;101213.53;5031345;28;20025;-68
2023/05/11 05:58:38;;;;;;;60.65;25.98;;;;;;;12.47;100.00;101211.28;5047113;28;20044;-68
2023/05/11 06:01:04;;;;;;;55.50;25.25;;;;;;;12.47;100.00;101211.28;5047994;28;20058;-69
2023/05/11 06:03:30;;;;;;;56.28;25.30;;;;;;;12.48;100.00;101206.88;5027179;28;20040;-68
2023/05/11 06:05:55;;;;;;;51.42;25.48;;;;;;;12.52;100.00;101213.38;5046010;28;20055;-69
2023/05/11 06:08:21;;;;;;;54.17;25.45;;;;;;;12.50;100.00;101205.75;5011991;28;20075;-70
2023/05/11 06:10:47;;;;;;;56.85;25.05;;;;;;;12.59;100.00;101206.59;5033558;28;20035;-68
2023/05/11 06:13:16;;;;;;;48.13;23.10;;;;;;;12.63;100.00;101208.69;5028757;28;20384;-69
2023/05/11 06:15:43;;;;;;;51.58;23.23;;;;;;;12.65;100.00;101208.53;5026328;28;20029;-69
2023/05/11 06:18:15;;;;;;;51.67;22.75;;;;;;;12.70;100.00;101202.88;5023775;28;20064;-69
2023/05/11 06:20:42;;;;;;;52.60;23.58;;;;;;;12.74;100.00;101207.59;5031854;28;20036;-69
2023/05/11 06:23:08;;;;;;;50.45;22.92;;;;;;;12.79;100.00;101210.53;5046284;28;20033;-68
2023/05/11 06:25:37;;;;;;;47.20;21.85;;;;;;;12.76;100.00;101205.63;5026214;28;20025;-69
2023/05/11 06:28:03;;;;;;;47.35;21.35;;;;;;;12.81;100.00;101205.16;5029020;28;20079;-68
2023/05/11 06:30:30;;;;;;;45.83;21.27;;;;;;;12.84;100.00;101207.44;5030518;28;20402;-69
2023/05/11 06:32:55;;;;;;;42.25;20.75;;;;;;;12.91;100.00;101205.81;5025406;28;20032;-69
2023/05/11 06:35:22;;;;;;;42.13;20.48;;;;;;;12.94;100.00;101202.91;5028607;28;20179;-69
2023/05/11 06:37:48;;;;;;;51.47;22.75;;;;;;;12.94;100.00;101205.50;5011755;28;20021;-69
2023/05/11 06:40:15;;;;;;;43.28;21.92;;;;;;;13.01;100.00;101201.25;5046464;28;20025;-69
2023/05/11 06:42:41;;;;;;;41.92;22.10;;;;;;;13.10;100.00;101196.06;5026547;28;20067;-69
2023/05/11 06:45:09;;;;;;;45.67;23.00;;;;;;;13.07;100.00;101209.41;5003451;28;20434;-68
2023/05/11 06:47:35;;;;;;;71.85;36.30;;;;;;;13.15;100.00;101201.63;5031125;28;20044;-71
2023/05/11 06:50:01;;;;;;;70.78;34.75;;;;;;;13.18;100.00;101201.28;5026378;28;20040;-70
2023/05/11 06:52:26;;;;;;;46.30;24.98;;;;;;;13.14;100.00;101200.78;5045808;28;20033;-69
2023/05/11 06:54:52;;;;;;;42.42;22.42;;;;;;;13.20;100.00;101207.13;5045832;28;20051;-69
2023/05/11 06:57:17;;;;;;;41.28;21.85;;;;;;;13.19;100.00;101206.31;5027214;28;20044;-69
2023/05/11 06:59:43;;;;;;;50.20;24.30;;;;;;;13.22;100.00;101207.78;5028114;28;20072;-68
2023/05/11 07:02:09;;;;;;;38.45;21.13;;;;;;;13.25;100.00;101208.25;5027015;28;20044;-69
2023/05/11 07:04:37;;;;;;;47.25;23.08;;;;;;;13.21;100.00;101206.16;5022780;28;20083;-69
2023/05/11 07:07:03;;;;;;;42.75;21.42;;;;;;;13.27;100.00;101207.28;5026530;28;20031;-69
2023/05/11 07:09:28;;;;;;;37.25;18.83;;;;;;;13.34;100.00;101208.31;5044868;28;20413;-69
2023/05/11 07:11:55;;;;;;;36.42;19.23;;;;;;;13.39;100.00;101208.59;5027256;28;20115;-69
2023/05/11 07:14:20;;;;;;;49.08;22.15;;;;;;;13.48;100.00;101206.81;5043111;28;20029;-69
2023/05/11 07:16:46;;;;;;;42.88;22.20;;;;;;;13.58;100.00;101205.66;5043355;28;20601;-69
2023/05/11 07:19:11;;;;;;;46.65;21.77;;;;;;;13.59;100.00;101207.28;5026440;28;20414;-67
2023/05/11 07:21:37;;;;;;;46.70;22.27;;;;;;;13.65;100.00;101213.63;5044020;28;20048;-70
2023/05/11 07:24:02;;;;;;;44.00;22.75;;;;;;;13.69;100.00;101206.28;5040240;28;20055;-69
2023/05/11 07:26:28;;;;;;;48.90;22.13;;;;;;;13.76;100.00;101215.06;5026008;28;20025;-69
2023/05/11 07:28:54;;;;;;;41.08;21.35;;;;;;;13.86;100.00;101207.06;5025483;28;20041;-68
2023/05/11 07:31:21;;;;;;;47.53;21.80;;;;;;;13.80;100.00;101206.75;5025709;28;20044;-69
2023/05/11 07:33:46;;;;;;;42.75;21.10;;;;;;;13.86;100.00;101202.66;5039835;28;20036;-69
2023/05/11 07:36:13;;;;;;;40.83;22.13;;;;;;;13.86;100.00;101209.66;5045710;28;20346;-68
2023/05/11 07:38:38;;;;;;;44.15;21.27;;;;;;;13.82;100.00;101214.41;5008026;28;20395;-69
2023/05/11 07:41:04;;;;;;;41.50;21.52;;;;;;;13.89;100.00;101214.56;5044126;28;20033;-69
2023/05/11 07:43:29;;;;;;;39.97;20.27;;;;;;;13.86;100.00;101220.09;5024831;28;20051;-69
2023/05/11 07:45:55;;;;;;;37.55;20.55;;;;;;;13.92;100.00;101216.81;5046156;28;20032;-68
2023/05/11 07:48:21;;;;;;;34.30;18.92;;;;;;;13.98;100.00;101213.56;5042013;28;20045;-69
2023/05/11 07:50:48;;;;;;;48.20;22.45;;;;;;;14.11;100.00;101213.00;5028307;28;20029;-68
2023/05/11 07:53:14;;;;;;;42.83;21.20;;;;;;;14.14;100.00;101215.28;5041719;28;20044;-69
2023/05/11 07:55:40;;;;;;;47.75;24.48;;;;;;;14.19;100.00;101216.38;5042428;28;20060;-69
2023/05/11 07:58:05;;;;;;;56.10;26.13;;;;;;;14.21;100.00;101211.81;5024423;28;20426;-69
2023/05/11 08:00:31;;;;;;;48.38;22.48;;;;;;;14.18;100.00;101216.56;5043027;28;20037;-69
2023/05/11 08:02:56;;;;;;;47.83;24.08;;;;;;;14.19;100.00;101219.00;5041224;28;20041;-69
2023/05/11 08:05:21;;;;;;;45.97;23.63;;;;;;;14.13;100.00;101217.06;5028042;28;20094;-69
2023/05/11 08:07:47;;;;;;;58.92;24.70;;;;;;;14.19;100.00;101218.19;5040970;28;20040;-69
2023/05/11 08:10:13;;;;;;;45.15;22.58;;;;;;;14.30;100.00;101215.22;5020649;28;20167;-69
2023/05/11 08:12:41;;;;;;;46.85;22.13;;;;;;;14.28;100.00;101216.34;5029529;28;20037;-68
2023/05/11 08:15:07;;;;;;;54.38;24.60;;;;;;;14.38;100.00;101212.56;5021313;28;20037;-69
2023/05/11 08:17:33;;;;;;;49.60;21.30;;;;;;;14.44;100.00;101213.66;5026023;28;20072;-69
2023/05/11 08:20:03;;;;;;;49.70;22.35;;;;;;;14.45;100.00;101209.25;5041793;28;20534;-68
2023/05/11 08:22:28;;;;;;;44.30;21.38;;;;;;;14.59;100.00;101216.38;5022324;28;20032;-70
2023/05/11 08:24:54;;;;;;;42.92;20.45;;;;;;;14.78;99.55;101213.31;5039905;28;20045;-70
2023/05/11 08:27:20;;;;;;;45.72;20.52;;;;;;;14.71;98.53;101214.19;5025713;28;20029;-68
2023/05/11 08:29:45;;;;;;;46.03;20.33;;;;;;;14.84;98.85;101211.81;5041433;28;20036;-69
2023/05/11 08:32:11;;;;;;;40.63;19.67;;;;;;;15.06;97.88;101209.38;5043143;28;20114;-69
2023/05/11 08:34:36;;;;;;;45.00;20.63;;;;;;;15.27;95.72;101213.94;5043169;28;20037;-70
2023/05/11 08:37:03;;;;;;;48.90;21.55;;;;;;;15.44;94.48;101212.00;5024825;28;20017;-69
2023/05/11 08:39:28;;;;;;;38.90;20.65;;;;;;;15.57;94.10;101206.97;5047103;28;20044;-69
2023/05/11 08:41:58;;;;;;;35.15;19.70;;;;;;;15.68;92.92;101208.34;5026473;28;20044;-69
2023/05/11 08:44:29;;;;;;;42.53;24.08;;;;;;;15.79;92.69;101214.94;5029265;28;20554;-70
2023/05/11 08:46:59;;;;;;;56.47;24.90;;;;;;;15.71;92.49;101214.00;5046379;28;20037;-69
2023/05/11 08:49:25;;;;;;;52.67;26.45;;;;;;;15.70;92.30;101212.38;5031328;28;20051;-70
2023/05/11 08:51:50;;;;;;;57.92;28.35;;;;;;;15.60;92.39;101214.44;5034037;28;20159;-69
2023/05/11 08:54:16;;;;;;;59.63;27.98;;;;;;;15.60;92.41;101219.69;5029261;28;20163;-69
2023/05/11 08:56:42;;;;;;;52.47;27.42;;;;;;;15.74;92.34;101218.91;5029390;28;20048;-69
2023/05/11 08:59:08;;;;;;;54.47;27.58;;;;;;;15.86;92.65;101218.44;5045890;28;20048;-70
2023/05/11 09:01:36;;;;;;;54.15;26.85;;;;;;;15.92;91.36;101223.78;5028808;28;20057;-69
2023/05/11 09:04:03;;;;;;;54.05;25.83;;;;;;;15.79;92.05;101225.41;5047388;28;22009;-69
2023/05/11 09:06:29;;;;;;;54.83;28.60;;;;;;;15.79;92.29;101223.59;5032281;28;20127;-70
2023/05/11 09:08:56;;;;;;;52.63;25.52;;;;;;;15.98;92.17;101221.44;5026456;28;20048;-70
2023/05/11 09:11:23;;;;;;;57.58;26.30;;;;;;;16.30;90.30;101222.84;5044368;28;20040;-69
2023/05/11 09:13:49;;;;;;;43.10;23.75;;;;;;;16.72;89.07;101222.06;5025739;28;20037;-69
2023/05/11 09:16:15;;;;;;;43.95;22.67;;;;;;;16.77;87.01;101226.78;5046813;28;20025;-70
2023/05/11 09:18:51;;;;;;;47.42;22.13;;;;;;;16.86;86.09;101222.25;5043766;28;20490;-70
2023/05/11 09:21:18;;;;;;;43.03;21.17;;;;;;;17.07;85.35;101219.63;5045749;28;20671;-70
2023/05/11 09:23:43;;;;;;;48.47;22.92;;;;;;;17.39;84.11;101217.47;5028654;28;20055;-70
2023/05/11 09:26:13;;;;;;;45.40;21.70;;;;;;;17.47;79.44;101214.69;5026689;28;20029;-69
2023/05/11 09:28:48;;;;;;;39.25;19.58;;;;;;;17.67;79.21;101214.81;5047569;28;20044;-68
2023/05/11 09:31:34;;;;;;;36.38;19.52;;;;;;;17.80;77.89;101218.50;5030425;28;20434;-70
2023/05/11 09:34:20;;;;;;;42.92;18.67;;;;;;;17.95;77.65;101207.91;5045027;28;20136;-68
2023/05/11 09:36:54;;;;;;;32.25;16.52;;;;;;;18.02;79.10;101206.13;5047533;28;20102;-70
2023/05/11 09:39:30;;;;;;;39.00;18.50;;;;;;;18.03;76.94;101197.28;5043033;28;20131;-70
2023/05/11 09:42:13;;;;;;;49.00;21.33;;;;;;;17.88;76.46;101207.91;5026545;28;20049;-70
2023/05/11 09:44:40;;;;;;;32.85;16.92;;;;;;;17.83;76.29;101200.56;5024727;28;20052;-70
2023/05/11 09:47:24;;;;;;;35.85;17.35;;;;;;;17.54;77.09;101204.25;5032200;28;20045;-70
2023/05/11 09:49:49;;;;;;;33.00;17.25;;;;;;;17.61;78.94;101210.34;5047070;28;20146;-70
2023/05/11 09:52:17;;;;;;;40.10;19.58;;;;;;;17.06;77.88;101207.50;5033677;28;20037;-70
2023/05/11 09:54:48;;;;;;;34.00;17.38;;;;;;;17.19;78.85;101208.63;5024709;28;20044;-70
2023/05/11 09:57:28;;;;;;;44.03;18.27;;;;;;;16.83;78.02;101212.16;5030894;28;20057;-70
2023/05/11 09:59:55;;;;;;;34.17;17.00;;;;;;;16.89;78.56;101209.56;5009698;28;20503;-70
2023/05/11 10:02:22;;;;;;;41.10;16.88;;;;;;;16.78;79.16;101211.88;5031412;28;20438;-69
2023/05/11 10:04:50;;;;;;;34.50;16.83;;;;;;;16.93;79.85;101210.84;5023635;28;20040;-69
2023/05/11 10:07:30;;;;;;;39.20;16.35;;;;;;;17.04;79.88;101208.72;5014998;28;20104;-70
2023/05/11 10:10:00;;;;;;;35.05;16.05;;;;;;;17.03;80.01;101207.91;5044389;28;20065;-70
2023/05/11 10:12:27;;;;;;;33.00;15.55;;;;;;;17.05;80.10;101205.09;5048190;28;20044;-70
2023/05/11 10:15:06;;;;;;;34.95;16.52;;;;;;;17.20;80.33;101207.66;5012330;28;20032;-70
2023/05/11 10:17:32;;;;;;;34.72;17.67;;;;;;;17.07;80.65;101205.72;5045056;28;20538;-70
2023/05/11 10:19:59;;;;;;;34.70;16.00;;;;;;;16.96;80.46;101207.03;5009902;28;20049;-69
2023/05/11 10:22:27;;;;;;;34.28;18.98;;;;;;;16.94;79.08;101206.41;5027697;28;20028;-70
2023/05/11 10:24:57;;;;;;;33.35;17.70;;;;;;;16.96;80.61;101203.63;5043867;28;20052;-69
2023/05/11 10:27:23;;;;;;;32.25;16.52;;;;;;;16.86;79.46;101202.13;5026653;28;20040;-69
2023/05/11 10:29:52;;;;;;;26.55;14.70;;;;;;;16.79;79.98;101205.63;5041827;28;20037;-68
2023/05/11 10:32:22;;;;;;;27.05;13.45;;;;;;;16.94;80.80;101203.78;5046351;28;20071;-70
2023/05/11 10:34:49;;;;;;;29.95;13.60;;;;;;;17.09;81.37;101206.34;5027137;28;20115;-70
2023/05/11 10:37:15;;;;;;;34.05;14.32;;;;;;;17.12;79.37;101205.94;5045862;28;20037;-70
2023/05/11 10:39:43;;;;;;;23.13;13.18;;;;;;;17.05;79.55;101200.66;5043563;28;20051;-70
2023/05/11 10:42:17;;;;;;;25.58;13.80;;;;;;;17.24;77.98;101196.56;5046063;28;20028;-70
2023/05/11 10:45:21;;;;;;;28.65;13.75;;;;;;;17.36;77.41;101196.06;5028911;28;20049;-70
2023/05/11 10:47:49;;;;;;;26.77;13.63;;;;;;;17.05;78.09;101198.03;5051394;28;20471;-70
2023/05/11 10:50:27;;;;;;;26.67;13.40;;;;;;;17.13;78.14;101200.53;5020902;28;20037;-70
2023/05/11 10:53:18;;;;;;;29.40;12.85;;;;;;;17.13;78.42;101202.34;5045229;28;20590;-70
2023/05/11 10:56:05;;;;;;;27.92;12.10;;;;;;;17.34;77.91;101203.31;5042805;28;20040;-69
2023/05/11 10:58:41;;;;;;;27.05;11.90;;;;;;;17.50;77.31;101200.41;5045294;28;20063;-68
2023/05/11 11:01:34;;;;;;;25.52;11.48;;;;;;;17.60;76.00;101200.84;5026368;28;20037;-70
2023/05/11 11:04:04;;;;;;;24.27;12.27;;;;;;;17.66;77.28;101202.69;5011769;28;20139;-69
2023/05/11 11:06:30;;;;;;;24.33;12.35;;;;;;;17.52;75.12;101196.56;5026072;28;20040;-70
2023/05/11 11:09:01;;;;;;;29.08;12.38;;;;;;;17.55;77.02;101199.81;5026490;28;20047;-69
2023/05/11 11:11:38;;;;;;;21.98;11.00;;;;;;;17.65;77.64;101202.88;5027368;28;20613;-70